Papworth Everard, United Kingdom
Current Conditions -  °F | °C
As of 9:50 AM on Tuesday 21 Oct 2014 (Local Time) from EGSC Reporting Station
Rain Showers Rain Showers  
Wind Chill: 52°   Ceiling: Unl
Heat Index: 52°   Visibility: 6mi
Dew Point: 48°   Wind: 20mph
Humidity: 88%   Direction: 270°W
Pressure: 29.53"   Gusts: 32mph
Location:  52.25°N, 0.12°W
Report Text: EGSC 210850Z 27017G28KT 250V320 9999 SHRA FEW006 SCT018 11/09 Q1000
Loading
Personal Weather Stations






























Interactive Weather Map
Tropical Storm Tracking
New forecast layout! Learn more

10-Day Weather Forecast

Advertisements
Track Severe Weather on mobile